Time;durP1;ratioP1;P1;durP2;ratioP2;P2;SDS_P1;SDS_P2;PMS_P1;PMS_P2;Temp;Humidity;BMP_temperature;BMP_pressure;BME280_temperature;BME280_humidity;BME280_pressure;Samples;Min_cycle;Max_cycle;Signal;HPM_P1;HPM_P2
2022/11/14 00:00:07;;;;;;;1999.90;999.90;;;7.30;99.90;;;;;;5037616;28;20488;-69
2022/11/14 00:02:33;;;;;;;1999.90;999.90;;;7.20;99.90;;;;;;5037100;28;20683;-69
2022/11/14 00:04:58;;;;;;;1999.90;999.90;;;7.10;99.90;;;;;;5034072;28;20469;-69
2022/11/14 00:07:24;;;;;;;1999.90;999.90;;;7.10;99.90;;;;;;5033952;28;20165;-69
2022/11/14 00:09:49;;;;;;;1999.90;999.90;;;7.00;99.90;;;;;;5034034;28;20184;-69
2022/11/14 00:12:15;;;;;;;1999.90;999.90;;;7.00;99.90;;;;;;5034037;28;20188;-69
2022/11/14 00:14:40;;;;;;;1999.90;999.90;;;6.90;99.90;;;;;;5033966;28;20248;-69
2022/11/14 00:17:06;;;;;;;1999.90;999.90;;;7.00;99.90;;;;;;5033804;28;20166;-69
2022/11/14 00:19:32;;;;;;;1999.90;999.90;;;6.90;99.90;;;;;;5033842;28;20267;-69
2022/11/14 00:21:59;;;;;;;1999.90;999.90;;;6.80;99.90;;;;;;5033817;28;20196;-69
2022/11/14 00:24:24;;;;;;;1999.90;999.90;;;6.80;99.90;;;;;;5033793;28;20657;-69
2022/11/14 00:26:50;;;;;;;1999.90;999.90;;;6.80;99.90;;;;;;5033569;28;20406;-69
2022/11/14 00:29:16;;;;;;;1999.90;999.90;;;6.80;99.90;;;;;;5033665;28;20512;-68
2022/11/14 00:31:41;;;;;;;1999.90;999.90;;;6.80;99.90;;;;;;5035776;28;20248;-69
2022/11/14 00:34:07;;;;;;;1999.90;999.90;;;6.60;99.90;;;;;;5035078;28;20419;-69
2022/11/14 00:36:33;;;;;;;1999.90;999.90;;;6.60;99.90;;;;;;5033563;28;20176;-69
2022/11/14 00:38:59;;;;;;;1999.90;999.90;;;6.50;99.90;;;;;;5032305;28;20527;-69
2022/11/14 00:41:25;;;;;;;1999.90;999.90;;;7.20;99.90;;;;;;5036153;28;20427;-69
2022/11/14 00:43:50;;;;;;;1999.90;999.90;;;6.50;99.90;;;;;;5037716;28;20196;-68
2022/11/14 00:46:16;;;;;;;1999.90;999.90;;;6.50;99.90;;;;;;5037983;28;20897;-69
2022/11/14 00:48:43;;;;;;;1999.90;999.90;;;6.40;99.90;;;;;;5037990;28;20219;-69
2022/11/14 00:51:09;;;;;;;1999.90;999.90;;;6.40;99.90;;;;;;5037578;28;20171;-69
2022/11/14 00:53:34;;;;;;;1999.90;999.90;;;6.40;99.90;;;;;;5037908;28;20417;-68
2022/11/14 00:56:00;;;;;;;1999.90;999.90;;;6.40;99.90;;;;;;5037702;28;20177;-69
2022/11/14 00:58:26;;;;;;;1999.90;999.90;;;6.40;99.90;;;;;;5036994;28;20172;-69
2022/11/14 01:00:52;;;;;;;1999.90;999.90;;;6.40;99.90;;;;;;5036457;28;20461;-70
2022/11/14 01:03:18;;;;;;;1999.90;999.90;;;6.50;99.90;;;;;;5037418;28;20197;-69
2022/11/14 01:05:46;;;;;;;1999.90;999.90;;;6.50;99.90;;;;;;5038344;28;20453;-69
2022/11/14 01:08:13;;;;;;;1999.90;999.90;;;6.50;99.90;;;;;;5035806;28;20172;-69
2022/11/14 01:10:40;;;;;;;1999.90;999.90;;;6.60;99.90;;;;;;5035349;28;20896;-69
2022/11/14 01:13:06;;;;;;;1999.90;999.90;;;6.60;99.90;;;;;;5036245;28;20423;-69
2022/11/14 01:15:32;;;;;;;1999.90;999.90;;;6.60;99.90;;;;;;5036625;28;20451;-69
2022/11/14 01:17:57;;;;;;;1999.90;999.90;;;6.70;99.90;;;;;;5020352;28;20415;-70
2022/11/14 01:20:23;;;;;;;1999.90;999.90;;;6.70;99.90;;;;;;5036346;28;20190;-69
2022/11/14 01:22:49;;;;;;;1999.90;999.90;;;6.70;99.90;;;;;;5032639;28;20192;-70
2022/11/14 01:25:14;;;;;;;1999.90;999.90;;;6.70;99.90;;;;;;5033054;28;20565;-69
2022/11/14 01:27:40;;;;;;;1999.90;999.90;;;6.70;99.90;;;;;;5032439;28;20179;-69
2022/11/14 01:30:06;;;;;;;1999.90;999.90;;;6.70;99.90;;;;;;5032561;28;20164;-69
2022/11/14 01:32:32;;;;;;;1999.90;999.90;;;6.70;99.90;;;;;;5032445;28;20612;-69
2022/11/14 01:34:57;;;;;;;1999.90;999.90;;;6.70;99.90;;;;;;5032428;28;20447;-69
2022/11/14 01:37:23;;;;;;;1999.90;999.90;;;6.70;99.90;;;;;;5032291;28;20165;-69
2022/11/14 01:39:48;;;;;;;1999.90;999.90;;;6.60;99.90;;;;;;5032397;28;20646;-69
2022/11/14 01:42:14;;;;;;;1999.90;999.90;;;6.50;99.90;;;;;;5032252;28;20226;-69
2022/11/14 01:44:53;;;;;;;1999.90;999.90;;;6.30;99.90;;;;;;5032501;28;20670;-69
2022/11/14 01:47:26;;;;;;;1999.90;999.90;;;6.30;99.90;;;;;;5032140;28;20784;-69
2022/11/14 01:49:56;;;;;;;1999.90;999.90;;;6.20;99.90;;;;;;5031875;28;20477;-69
2022/11/14 01:52:27;;;;;;;1999.90;999.90;;;6.20;99.90;;;;;;5032189;28;20446;-69
2022/11/14 01:54:56;;;;;;;1999.90;999.90;;;6.20;99.90;;;;;;5032123;28;20812;-69
2022/11/14 01:57:28;;;;;;;1999.90;999.90;;;6.10;99.90;;;;;;5031953;28;20405;-69
2022/11/14 01:59:57;;;;;;;1999.90;999.90;;;6.00;99.90;;;;;;5032076;28;20411;-69
2022/11/14 02:02:24;;;;;;;1999.90;999.90;;;6.10;99.90;;;;;;5032016;28;20423;-69
2022/11/14 02:05:05;;;;;;;1999.90;999.90;;;6.10;99.90;;;;;;5032056;28;20411;-69
2022/11/14 02:07:34;;;;;;;1999.90;999.90;;;6.00;99.90;;;;;;5031962;28;20422;-69
2022/11/14 02:10:05;;;;;;;1999.90;999.90;;;6.00;99.90;;;;;;5032076;28;20429;-69
2022/11/14 02:12:31;;;;;;;1999.90;999.90;;;6.00;99.90;;;;;;5031862;28;20427;-69
2022/11/14 02:14:58;;;;;;;1999.90;999.90;;;5.90;99.90;;;;;;5031886;28;20542;-69
2022/11/14 02:17:24;;;;;;;1999.90;999.90;;;6.00;99.90;;;;;;5031753;28;20418;-69
2022/11/14 02:19:54;;;;;;;1999.90;999.90;;;6.00;99.90;;;;;;5031816;28;20407;-68
2022/11/14 02:22:19;;;;;;;1999.90;999.90;;;5.90;99.90;;;;;;5031867;28;20985;-69
2022/11/14 02:24:45;;;;;;;1999.90;999.90;;;5.90;99.90;;;;;;5031937;28;20497;-69
2022/11/14 02:27:13;;;;;;;1999.90;999.90;;;5.90;99.90;;;;;;5031624;28;20173;-69
2022/11/14 02:29:39;;;;;;;1999.90;999.90;;;5.90;99.90;;;;;;5031819;28;20276;-69
2022/11/14 02:32:05;;;;;;;1999.90;999.90;;;5.90;99.90;;;;;;5032007;28;20623;-69
2022/11/14 02:34:31;;;;;;;1999.90;999.90;;;5.90;99.90;;;;;;5031754;28;20191;-69
2022/11/14 02:36:57;;;;;;;1999.90;999.90;;;5.90;99.90;;;;;;5031512;28;20395;-71
2022/11/14 02:39:23;;;;;;;1999.90;999.90;;;5.90;99.90;;;;;;5031800;28;20494;-69
2022/11/14 02:41:50;;;;;;;1999.90;999.90;;;5.90;99.90;;;;;;5031706;28;20399;-69
2022/11/14 02:44:16;;;;;;;1999.90;999.90;;;5.90;99.90;;;;;;5031672;28;20638;-69
2022/11/14 02:46:41;;;;;;;1999.90;999.90;;;5.90;99.90;;;;;;5034986;28;20553;-69
2022/11/14 02:49:07;;;;;;;1999.90;999.90;;;5.80;99.90;;;;;;5031609;28;20455;-69
2022/11/14 02:51:33;;;;;;;1999.90;999.90;;;5.80;99.90;;;;;;5031688;28;20184;-68
2022/11/14 02:53:58;;;;;;;1999.90;999.90;;;6.10;99.90;;;;;;5031449;28;20242;-69
2022/11/14 02:56:24;;;;;;;1999.90;999.90;;;5.80;99.90;;;;;;5035093;28;20513;-68
2022/11/14 02:58:49;;;;;;;1999.90;999.90;;;5.80;99.90;;;;;;5036957;28;20179;-68
2022/11/14 03:01:15;;;;;;;1999.90;999.90;;;6.20;99.90;;;;;;5035068;28;20227;-69
2022/11/14 03:03:40;;;;;;;1999.90;999.90;;;5.70;99.90;;;;;;5035498;28;20188;-69
2022/11/14 03:06:06;;;;;;;1999.90;999.90;;;5.60;99.90;;;;;;5035242;28;20203;-69
2022/11/14 03:08:32;;;;;;;1999.90;999.90;;;5.60;99.90;;;;;;5035486;28;20525;-68
2022/11/14 03:11:04;;;;;;;1999.90;999.90;;;5.50;99.90;;;;;;5019949;28;20176;-68
2022/11/14 03:13:29;;;;;;;1999.90;999.90;;;5.50;99.90;;;;;;5038931;28;20431;-69
2022/11/14 03:15:55;;;;;;;1999.90;999.90;;;5.40;99.90;;;;;;5038777;28;20605;-69
2022/11/14 03:18:21;;;;;;;1999.90;999.90;;;5.40;99.90;;;;;;5037884;28;20183;-69
2022/11/14 03:20:46;;;;;;;1999.90;999.90;;;5.40;99.90;;;;;;5042365;28;20172;-69
2022/11/14 03:23:12;;;;;;;1999.90;999.90;;;5.30;99.90;;;;;;5032352;28;20188;-68
2022/11/14 03:25:38;;;;;;;1999.90;999.90;;;5.30;99.90;;;;;;5047889;28;20168;-69
2022/11/14 03:28:03;;;;;;;1999.90;999.90;;;5.20;99.90;;;;;;5048357;28;20177;-69
2022/11/14 03:30:30;;;;;;;1999.90;999.90;;;5.20;99.90;;;;;;5031391;28;20638;-69
2022/11/14 03:32:56;;;;;;;1999.90;999.90;;;5.20;99.90;;;;;;5030679;28;20729;-69
2022/11/14 03:35:22;;;;;;;1999.90;999.90;;;5.20;99.90;;;;;;5047653;28;20446;-69
2022/11/14 03:37:48;;;;;;;1999.90;999.90;;;5.20;99.90;;;;;;5046576;28;20415;-69
2022/11/14 03:40:14;;;;;;;1999.90;999.90;;;5.20;99.90;;;;;;5049310;28;20483;-69
2022/11/14 03:42:39;;;;;;;1999.90;999.90;;;5.10;99.90;;;;;;5047099;28;20188;-69
2022/11/14 03:45:05;;;;;;;1999.90;999.90;;;5.10;99.90;;;;;;5031378;28;20179;-68
2022/11/14 03:47:31;;;;;;;1999.90;999.90;;;5.10;99.90;;;;;;5047470;28;20176;-68
2022/11/14 03:49:56;;;;;;;1999.90;999.90;;;5.40;99.90;;;;;;5047733;28;20443;-68
2022/11/14 03:52:24;;;;;;;1999.90;999.90;;;5.40;99.90;;;;;;5045607;28;20259;-70
2022/11/14 03:54:50;;;;;;;1999.90;999.90;;;5.00;99.90;;;;;;5043024;28;20193;-69
2022/11/14 03:57:16;;;;;;;1999.90;999.90;;;5.00;99.90;;;;;;5035337;28;20461;-69
2022/11/14 03:59:41;;;;;;;1999.90;999.90;;;5.00;99.90;;;;;;5036821;28;20625;-68
2022/11/14 04:02:07;;;;;;;1999.90;999.90;;;5.00;99.90;;;;;;5044434;28;20188;-68
2022/11/14 04:04:33;;;;;;;1999.90;999.90;;;5.00;99.90;;;;;;5020071;28;20326;-68
2022/11/14 04:06:58;;;;;;;1999.90;999.90;;;4.90;99.90;;;;;;5033974;28;20491;-68
2022/11/14 04:09:24;;;;;;;1999.90;999.90;;;4.90;99.90;;;;;;5034073;28;20262;-69
2022/11/14 04:11:50;;;;;;;1999.90;999.90;;;5.00;99.90;;;;;;5034635;28;20176;-69
2022/11/14 04:14:15;;;;;;;1999.90;999.90;;;5.00;99.90;;;;;;5041471;28;20200;-69
2022/11/14 04:16:41;;;;;;;1999.90;999.90;;;5.10;99.90;;;;;;5036362;28;20168;-68
2022/11/14 04:19:06;;;;;;;1999.90;999.90;;;5.10;99.90;;;;;;5042070;28;20214;-69
2022/11/14 04:21:32;;;;;;;1999.90;999.90;;;5.10;99.90;;;;;;5019651;28;20206;-69
2022/11/14 04:23:58;;;;;;;1999.90;999.90;;;5.10;99.90;;;;;;5033832;28;20188;-69
2022/11/14 04:26:23;;;;;;;1999.90;999.90;;;5.10;99.90;;;;;;5033791;28;20176;-68
2022/11/14 04:28:49;;;;;;;1999.90;999.90;;;5.20;99.90;;;;;;5044241;28;21013;-69
2022/11/14 04:31:14;;;;;;;1999.90;999.90;;;5.10;99.90;;;;;;5049734;28;20164;-68
2022/11/14 04:33:40;;;;;;;1999.90;999.90;;;5.10;99.90;;;;;;5047861;28;20228;-69
2022/11/14 04:36:06;;;;;;;1999.90;999.90;;;5.30;99.90;;;;;;5028625;28;20208;-68
2022/11/14 04:38:31;;;;;;;1999.90;999.90;;;5.00;99.90;;;;;;5046317;28;20173;-69
2022/11/14 04:40:57;;;;;;;1999.90;999.90;;;5.00;99.90;;;;;;5046392;28;21077;-69
2022/11/14 04:43:23;;;;;;;1999.90;999.90;;;5.00;99.90;;;;;;5045047;28;20196;-69
2022/11/14 04:45:48;;;;;;;1999.90;999.90;;;5.10;99.90;;;;;;5026660;28;20176;-70
2022/11/14 04:48:14;;;;;;;1999.90;999.90;;;5.20;99.90;;;;;;5043084;28;20179;-68
2022/11/14 04:50:39;;;;;;;1999.90;999.90;;;5.10;99.90;;;;;;5039010;28;20186;-70
2022/11/14 04:53:05;;;;;;;1999.90;999.90;;;5.10;99.90;;;;;;5039563;28;20198;-69
2022/11/14 04:55:31;;;;;;;1999.90;999.90;;;5.10;99.90;;;;;;5034107;28;20602;-69
2022/11/14 04:57:57;;;;;;;1999.90;999.90;;;5.10;99.90;;;;;;5042080;28;20169;-69
2022/11/14 05:00:24;;;;;;;1999.90;999.90;;;5.20;99.90;;;;;;5033147;28;20180;-69
2022/11/14 05:02:50;;;;;;;1999.90;999.90;;;5.70;99.90;;;;;;5033103;28;20470;-69
2022/11/14 05:05:15;;;;;;;1999.90;999.90;;;5.30;99.90;;;;;;5033060;28;20464;-68
2022/11/14 05:07:41;;;;;;;1999.90;999.90;;;5.30;99.90;;;;;;5032801;28;20407;-69
2022/11/14 05:10:08;;;;;;;1999.90;999.90;;;5.40;99.90;;;;;;5032979;28;20179;-69
2022/11/14 05:12:33;;;;;;;1999.90;999.90;;;5.40;99.90;;;;;;5032707;28;20196;-69
2022/11/14 05:14:59;;;;;;;1999.90;999.90;;;5.30;99.90;;;;;;5032811;28;20500;-69
2022/11/14 05:17:25;;;;;;;1999.90;999.90;;;5.40;99.90;;;;;;5032621;28;20255;-69
2022/11/14 05:19:50;;;;;;;1999.90;999.90;;;5.40;99.90;;;;;;5032733;28;20630;-69
2022/11/14 05:22:16;;;;;;;1999.90;999.90;;;5.30;99.90;;;;;;5032641;28;20200;-69
2022/11/14 05:24:42;;;;;;;1999.90;999.90;;;5.30;99.90;;;;;;5034201;28;20175;-70
2022/11/14 05:27:08;;;;;;;1999.90;999.90;;;5.30;99.90;;;;;;5032375;28;20407;-69
2022/11/14 05:29:33;;;;;;;1999.90;999.90;;;5.20;99.90;;;;;;5032712;28;20226;-69
2022/11/14 05:31:59;;;;;;;1999.90;999.90;;;5.20;99.90;;;;;;5034807;28;20212;-69
2022/11/14 05:34:26;;;;;;;1999.90;999.90;;;5.10;99.90;;;;;;5034760;28;20693;-70
2022/11/14 05:36:51;;;;;;;1999.90;999.90;;;5.10;99.90;;;;;;5032279;28;20439;-69
2022/11/14 05:39:17;;;;;;;1999.90;999.90;;;5.10;99.90;;;;;;5032417;28;20406;-69
2022/11/14 05:41:43;;;;;;;1999.90;999.90;;;5.10;99.90;;;;;;5032320;28;20172;-69
2022/11/14 05:44:09;;;;;;;1999.90;999.90;;;5.10;99.90;;;;;;5015141;28;20538;-69
2022/11/14 05:46:35;;;;;;;1999.90;999.90;;;5.00;99.90;;;;;;5032623;28;20494;-69
2022/11/14 05:49:01;;;;;;;1999.90;999.90;;;5.00;99.90;;;;;;5014887;28;20554;-69
2022/11/14 05:51:26;;;;;;;1999.90;999.90;;;4.90;99.90;;;;;;5015108;28;20403;-69
2022/11/14 05:53:53;;;;;;;1999.90;999.90;;;4.90;99.90;;;;;;5032490;28;20831;-69
2022/11/14 05:56:19;;;;;;;1999.90;999.90;;;4.90;99.90;;;;;;5032291;28;20463;-70
2022/11/14 05:58:45;;;;;;;1999.90;999.90;;;4.90;99.90;;;;;;5032788;28;20411;-70
2022/11/14 06:01:14;;;;;;;1999.90;999.90;;;4.90;99.90;;;;;;5016178;28;20415;-69
2022/11/14 06:03:44;;;;;;;1999.90;999.90;;;4.90;99.90;;;;;;5035788;28;20814;-69
2022/11/14 06:06:13;;;;;;;1999.90;999.90;;;5.20;99.90;;;;;;5041993;28;20419;-68
2022/11/14 06:08:39;;;;;;;1999.90;999.90;;;5.00;99.90;;;;;;5037344;28;20505;-69
2022/11/14 06:11:08;;;;;;;1999.90;999.90;;;5.00;99.90;;;;;;5016884;28;20454;-68
2022/11/14 06:13:34;;;;;;;1999.90;999.90;;;5.00;99.90;;;;;;5036478;28;20844;-69
2022/11/14 06:16:01;;;;;;;1999.90;999.90;;;5.00;99.90;;;;;;5035508;28;20553;-69
2022/11/14 06:18:29;;;;;;;1999.90;999.90;;;5.00;99.90;;;;;;5040362;28;20407;-70
2022/11/14 06:21:00;;;;;;;1999.90;999.90;;;5.00;99.90;;;;;;5026792;28;20419;-69
2022/11/14 06:23:26;;;;;;;1999.90;999.90;;;5.10;99.90;;;;;;5043344;28;20427;-70
2022/11/14 06:25:56;;;;;;;1999.90;999.90;;;5.00;99.90;;;;;;5026165;28;20423;-70
2022/11/14 06:28:22;;;;;;;1999.90;999.90;;;5.10;99.90;;;;;;5042432;28;20419;-70
2022/11/14 06:30:48;;;;;;;1999.90;999.90;;;5.10;99.90;;;;;;5044665;28;20418;-69
2022/11/14 06:33:13;;;;;;;1999.90;999.90;;;5.50;99.90;;;;;;5035483;28;20208;-68
2022/11/14 06:35:39;;;;;;;1999.90;999.90;;;5.20;99.90;;;;;;5031299;28;20200;-68
2022/11/14 06:38:04;;;;;;;1999.90;999.90;;;5.20;99.90;;;;;;5035509;28;20171;-69
2022/11/14 06:40:30;;;;;;;1999.90;999.90;;;5.20;99.90;;;;;;5035500;28;20167;-68
2022/11/14 06:42:55;;;;;;;1999.90;999.90;;;5.20;99.90;;;;;;5040506;28;20219;-69
2022/11/14 06:45:21;;;;;;;1999.90;999.90;;;5.30;99.90;;;;;;5038557;28;20172;-69
2022/11/14 06:47:47;;;;;;;1999.90;999.90;;;5.20;99.90;;;;;;5039417;28;20180;-68
2022/11/14 06:50:12;;;;;;;1999.90;999.90;;;5.30;99.90;;;;;;5041106;28;20216;-70
2022/11/14 06:52:38;;;;;;;1999.90;999.90;;;5.30;99.90;;;;;;5035982;28;20207;-69
2022/11/14 06:55:04;;;;;;;1999.90;999.90;;;5.30;99.90;;;;;;5035948;28;20562;-69
2022/11/14 06:57:29;;;;;;;1999.90;999.90;;;5.30;99.90;;;;;;5038234;28;20181;-69
2022/11/14 06:59:55;;;;;;;1999.90;999.90;;;5.30;99.90;;;;;;5035386;28;20407;-69
2022/11/14 07:02:21;;;;;;;1999.90;999.90;;;5.40;99.90;;;;;;5038328;28;20196;-69
2022/11/14 07:04:46;;;;;;;1999.90;999.90;;;5.40;99.90;;;;;;5037953;28;20488;-69
2022/11/14 07:07:12;;;;;;;1999.90;999.90;;;5.40;99.90;;;;;;5037433;28;20520;-69
2022/11/14 07:09:38;;;;;;;1999.90;999.90;;;5.50;99.90;;;;;;5035565;28;20188;-68
2022/11/14 07:12:03;;;;;;;1999.90;999.90;;;5.50;99.90;;;;;;5035215;28;20207;-68
2022/11/14 07:14:29;;;;;;;1999.90;999.90;;;5.50;99.90;;;;;;5037867;28;20192;-69
2022/11/14 07:16:54;;;;;;;1999.90;999.90;;;5.40;99.90;;;;;;5041952;28;20169;-69
2022/11/14 07:19:20;;;;;;;1999.90;999.90;;;5.50;99.90;;;;;;5025438;28;20181;-69
2022/11/14 07:21:47;;;;;;;1999.90;999.90;;;5.50;99.90;;;;;;5042229;28;20562;-70
2022/11/14 07:24:12;;;;;;;1999.90;999.90;;;5.50;99.90;;;;;;5039728;28;20210;-68
2022/11/14 07:26:38;;;;;;;1999.90;999.90;;;5.60;99.90;;;;;;5034674;28;20405;-68
2022/11/14 07:29:04;;;;;;;1999.90;999.90;;;5.60;99.90;;;;;;5034941;28;20618;-68
2022/11/14 07:31:29;;;;;;;1999.90;999.90;;;5.60;99.90;;;;;;5034743;28;20176;-68
2022/11/14 07:33:55;;;;;;;1999.90;999.90;;;5.60;99.90;;;;;;5034654;28;20623;-69
2022/11/14 07:36:20;;;;;;;1999.90;999.90;;;5.70;99.90;;;;;;5034593;28;20223;-69
2022/11/14 07:38:46;;;;;;;1999.90;999.90;;;5.70;99.90;;;;;;5034430;28;20168;-70
2022/11/14 07:41:14;;;;;;;1999.90;999.90;;;5.80;99.90;;;;;;5034706;28;20242;-68
2022/11/14 07:43:40;;;;;;;1999.90;999.90;;;5.80;99.90;;;;;;5035321;28;20561;-69
2022/11/14 07:46:11;;;;;;;1999.90;999.90;;;5.90;99.90;;;;;;5035751;28;20502;-68
2022/11/14 07:48:37;;;;;;;1999.90;999.90;;;5.90;99.90;;;;;;5034544;28;20453;-69
2022/11/14 07:51:09;;;;;;;1999.90;999.90;;;5.90;99.90;;;;;;5036869;28;20754;-68
2022/11/14 07:53:35;;;;;;;1999.90;999.90;;;6.00;99.90;;;;;;5034770;28;20431;-69
2022/11/14 07:56:03;;;;;;;1999.90;999.90;;;6.10;99.90;;;;;;5034222;28;20493;-69
2022/11/14 07:58:29;;;;;;;1999.90;999.90;;;6.30;99.90;;;;;;5034268;28;20770;-69
2022/11/14 08:00:54;;;;;;;1999.90;999.90;;;6.40;99.90;;;;;;5036784;28;20403;-69
2022/11/14 08:03:20;;;;;;;1999.90;999.90;;;6.70;99.90;;;;;;5039818;28;20756;-70
2022/11/14 08:05:46;;;;;;;1999.90;999.90;;;6.70;99.90;;;;;;5040260;28;20176;-70
2022/11/14 08:08:11;;;;;;;1999.90;999.90;;;6.80;99.90;;;;;;5039249;28;20199;-69
2022/11/14 08:10:37;;;;;;;1999.90;999.90;;;6.90;99.90;;;;;;5039810;28;20192;-69
2022/11/14 08:13:05;;;;;;;1999.90;999.90;;;7.00;99.90;;;;;;5039824;28;20193;-69
2022/11/14 08:15:31;;;;;;;1999.90;999.90;;;7.10;99.90;;;;;;5036687;28;20196;-69
2022/11/14 08:17:58;;;;;;;1999.90;999.90;;;7.10;99.90;;;;;;5034239;28;20412;-69
2022/11/14 08:20:25;;;;;;;1999.90;999.90;;;7.20;99.90;;;;;;5039213;28;20400;-69
2022/11/14 08:23:00;;;;;;;1999.90;999.90;;;7.30;99.90;;;;;;5034546;28;20507;-69
2022/11/14 08:25:26;;;;;;;1999.90;999.90;;;7.30;99.90;;;;;;5036011;28;20409;-69
2022/11/14 08:27:52;;;;;;;1999.90;999.90;;;7.40;99.90;;;;;;5035284;28;20426;-69
2022/11/14 08:30:18;;;;;;;1999.90;999.90;;;7.40;99.90;;;;;;5035772;28;20180;-69
2022/11/14 08:32:43;;;;;;;1999.90;999.90;;;7.40;99.90;;;;;;5036112;28;20446;-69
2022/11/14 08:35:09;;;;;;;1999.90;999.90;;;7.50;99.90;;;;;;5036601;28;20330;-69
2022/11/14 08:37:34;;;;;;;1999.90;999.90;;;7.60;99.90;;;;;;5038132;28;20619;-70
2022/11/14 08:40:00;;;;;;;1999.90;999.90;;;7.60;99.90;;;;;;5037586;28;20287;-68
2022/11/14 08:42:26;;;;;;;1999.90;999.90;;;7.60;99.90;;;;;;5038536;28;20264;-69
2022/11/14 08:44:51;;;;;;;1999.90;999.90;;;7.60;99.90;;;;;;5038852;28;20218;-70
2022/11/14 08:47:17;;;;;;;1999.90;999.90;;;7.60;99.90;;;;;;5037464;28;20180;-69
2022/11/14 08:49:42;;;;;;;1999.90;999.90;;;7.60;99.90;;;;;;5025864;28;20188;-69
2022/11/14 08:52:08;;;;;;;1999.90;999.90;;;7.60;99.90;;;;;;5011869;28;20233;-69
2022/11/14 08:54:34;;;;;;;1999.90;999.90;;;7.70;99.90;;;;;;5012093;28;20200;-69
2022/11/14 08:56:59;;;;;;;1999.90;999.90;;;7.80;99.90;;;;;;5012092;28;20223;-69
2022/11/14 08:59:25;;;;;;;1999.90;999.90;;;7.90;99.90;;;;;;5011671;28;20182;-69
2022/11/14 09:01:50;;;;;;;1999.90;999.90;;;7.90;99.90;;;;;;5011686;28;20238;-69
2022/11/14 09:04:16;;;;;;;1999.90;999.90;;;7.90;99.90;;;;;;5011990;28;20171;-69
2022/11/14 09:06:42;;;;;;;1999.90;999.90;;;8.00;99.90;;;;;;5011655;28;20601;-69
2022/11/14 09:09:07;;;;;;;1999.90;999.90;;;8.00;99.90;;;;;;5012025;28;20185;-69
2022/11/14 09:11:33;;;;;;;1999.90;999.90;;;7.90;99.90;;;;;;5011469;28;20167;-69
2022/11/14 09:14:00;;;;;;;1999.90;999.90;;;8.00;99.90;;;;;;5011220;28;20351;-69
2022/11/14 09:16:25;;;;;;;1999.90;999.90;;;8.00;99.90;;;;;;5011596;28;20232;-69
2022/11/14 09:18:51;;;;;;;1999.90;999.90;;;8.00;99.90;;;;;;5011485;28;20499;-69
2022/11/14 09:21:23;;;;;;;1999.90;999.90;;;8.00;99.90;;;;;;5068649;28;20930;-70
2022/11/14 09:23:49;;;;;;;1999.90;999.90;;;8.00;99.90;;;;;;5072016;28;20434;-69
2022/11/14 09:26:14;;;;;;;1999.90;999.90;;;8.10;99.90;;;;;;5073152;28;20204;-72
2022/11/14 09:28:40;;;;;;;1999.90;999.90;;;8.10;99.90;;;;;;5073132;28;20182;-69
2022/11/14 09:31:09;;;;;;;1999.90;999.90;;;8.10;99.90;;;;;;5076577;28;20260;-69
2022/11/14 09:33:35;;;;;;;1999.90;999.90;;;8.10;99.90;;;;;;5068337;28;20226;-68
2022/11/14 09:36:06;;;;;;;1999.90;999.90;;;8.10;99.90;;;;;;5069495;28;20429;-68
2022/11/14 09:38:32;;;;;;;1999.90;999.90;;;8.00;99.90;;;;;;5070864;28;20537;-68
2022/11/14 09:41:07;;;;;;;1999.90;999.90;;;8.00;99.90;;;;;;5071912;28;20460;-68
2022/11/14 09:44:03;;;;;;;1999.90;999.90;;;8.00;99.90;;;;;;5070600;28;20421;-74
2022/11/14 09:47:16;;;;;;;1999.90;999.90;;;8.00;99.90;;;;;;5075950;28;20413;-71
2022/11/14 09:49:44;;;;;;;1999.90;999.90;;;8.10;99.90;;;;;;5070868;28;20460;-72
2022/11/14 09:52:38;;;;;;;1999.90;999.90;;;8.10;99.90;;;;;;5071852;28;20460;-72
2022/11/14 09:55:18;;;;;;;1999.90;999.90;;;8.00;99.90;;;;;;5071194;28;20396;-70
2022/11/14 09:57:44;;;;;;;1999.90;999.90;;;8.10;99.90;;;;;;5071124;28;20848;-70
2022/11/14 10:00:22;;;;;;;1999.90;999.90;;;8.20;99.90;;;;;;5070612;28;20450;-68
2022/11/14 10:03:02;;;;;;;1999.90;999.90;;;8.30;99.90;;;;;;5069229;28;20797;-73
2022/11/14 10:05:55;;;;;;;1999.90;999.90;;;8.50;99.90;;;;;;5068088;28;20431;-73
2022/11/14 10:08:39;;;;;;;1999.90;999.90;;;8.90;99.90;;;;;;5067646;28;20403;-72
2022/11/14 10:11:15;;;;;;;1999.90;999.90;;;9.20;99.90;;;;;;5067678;28;20920;-71
2022/11/14 10:14:18;;;;;;;1999.90;999.90;;;9.30;99.90;;;;;;5070890;28;20425;-68
2022/11/14 10:17:07;;;;;;;1999.90;999.90;;;9.50;99.90;;;;;;5070116;28;20692;-72
2022/11/14 10:20:08;;;;;;;1999.90;999.90;;;9.70;99.90;;;;;;5070876;28;20488;-72
2022/11/14 10:22:56;;;;;;;1999.90;999.90;;;9.70;99.90;;;;;;5048264;28;20442;-73
2022/11/14 10:25:29;;;;;;;1999.90;999.90;;;9.70;99.90;;;;;;5069792;28;20509;-70
2022/11/14 10:28:24;;;;;;;1999.90;999.90;;;9.70;99.90;;;;;;5071576;28;20419;-69
2022/11/14 10:31:27;;;;;;;1999.90;999.90;;;9.60;99.90;;;;;;5065117;28;20400;-70
2022/11/14 10:34:06;;;;;;;1999.90;999.90;;;9.70;99.90;;;;;;5054324;28;20437;-70
2022/11/14 10:36:33;;;;;;;1999.90;999.90;;;9.70;99.90;;;;;;5055591;28;20800;-70
2022/11/14 10:38:59;;;;;;;1999.90;999.90;;;9.80;99.90;;;;;;5058196;28;20824;-69
2022/11/14 10:41:26;;;;;;;1999.90;999.90;;;9.80;99.90;;;;;;5055539;28;20406;-70
2022/11/14 10:43:53;;;;;;;1999.90;999.90;;;9.80;99.90;;;;;;5050486;28;20202;-69
2022/11/14 10:46:32;;;;;;;1999.90;999.90;;;9.90;99.90;;;;;;5053881;28;20405;-69
2022/11/14 10:48:59;;;;;;;1999.90;999.90;;;9.80;99.90;;;;;;5053337;28;20806;-70
2022/11/14 10:51:41;;;;;;;1999.90;999.90;;;9.80;99.90;;;;;;5054162;28;20405;-69
2022/11/14 10:54:26;;;;;;;1999.90;999.90;;;9.80;99.90;;;;;;5053947;28;20412;-69
2022/11/14 10:56:53;;;;;;;1999.90;999.90;;;9.70;99.90;;;;;;5053765;28;20410;-69
2022/11/14 10:59:20;;;;;;;1999.90;999.90;;;9.70;99.90;;;;;;5053818;28;20457;-70
2022/11/14 11:01:54;;;;;;;1999.90;999.90;;;9.60;99.90;;;;;;5053344;28;20561;-69
2022/11/14 11:04:25;;;;;;;1999.90;999.90;;;9.70;99.90;;;;;;5053950;28;20934;-69
2022/11/14 11:06:54;;;;;;;1999.90;999.90;;;9.60;99.90;;;;;;5053454;28;20412;-69
2022/11/14 11:12:21;;;;;;;1999.90;999.90;;;9.60;99.90;;;;;;5053559;28;20427;-70
2022/11/14 11:15:12;;;;;;;1999.90;999.90;;;9.70;99.90;;;;;;5053344;28;20405;-70
2022/11/14 11:18:05;;;;;;;1999.90;999.90;;;9.80;99.90;;;;;;5052848;28;20778;-69
2022/11/14 11:20:39;;;;;;;1999.90;999.90;;;9.90;99.90;;;;;;5053179;28;20478;-72
2022/11/14 11:23:08;;;;;;;1999.90;999.90;;;10.10;99.90;;;;;;5053332;28;20445;-73
2022/11/14 11:25:34;;;;;;;1999.90;999.90;;;10.10;99.90;;;;;;5052887;28;20408;-70
2022/11/14 11:28:09;;;;;;;1999.90;999.90;;;10.30;99.90;;;;;;5053266;28;20445;-70
2022/11/14 11:30:36;;;;;;;1999.90;999.90;;;10.50;99.90;;;;;;5053130;28;20413;-67
2022/11/14 11:33:16;;;;;;;1999.90;999.90;;;11.00;99.90;;;;;;5052795;28;20441;-68
2022/11/14 11:35:43;;;;;;;1999.90;999.90;;;11.70;99.90;;;;;;5053378;28;20844;-67
2022/11/14 11:38:11;;;;;;;1999.90;999.90;;;12.60;99.90;;;;;;5053076;28;20435;-67
2022/11/14 11:40:38;;;;;;;1999.90;999.90;;;13.60;99.90;;;;;;5052851;28;20519;-67
2022/11/14 11:43:27;;;;;;;1999.90;999.90;;;14.50;99.90;;;;;;5052491;28;20434;-68
2022/11/14 11:45:54;;;;;;;1999.90;999.90;;;15.10;99.90;;;;;;5053238;28;20491;-67
2022/11/14 11:48:22;;;;;;;1999.90;999.90;;;16.10;99.90;;;;;;5052199;28;20409;-67
2022/11/14 11:50:48;;;;;;;1999.90;999.90;;;16.80;99.90;;;;;;5055193;28;20445;-67
2022/11/14 11:53:25;;;;;;;1999.90;999.90;;;17.10;99.90;;;;;;5058951;28;20428;-67
2022/11/14 11:55:58;;;;;;;1999.90;999.90;;;17.30;99.90;;;;;;5058280;28;20420;-67
2022/11/14 11:58:42;;;;;;;1999.90;999.90;;;17.30;99.90;;;;;;5058540;28;20446;-67
2022/11/14 12:01:12;;;;;;;1999.90;999.90;;;17.70;99.90;;;;;;5053960;28;20605;-67
2022/11/14 12:03:38;;;;;;;1999.90;999.90;;;18.30;99.90;;;;;;5053878;28;20423;-68
2022/11/14 12:06:24;;;;;;;1999.90;999.90;;;18.20;99.90;;;;;;5053496;28;20768;-67
2022/11/14 12:09:20;;;;;;;1999.90;999.90;;;18.50;99.80;;;;;;5053206;28;20176;-67
2022/11/14 12:11:54;;;;;;;1999.90;999.90;;;18.20;99.60;;;;;;5053629;28;20416;-67
2022/11/14 12:14:40;;;;;;;1999.90;999.90;;;18.10;98.40;;;;;;5053833;28;20843;-67
2022/11/14 12:17:43;;;;;;;1999.90;999.90;;;18.30;97.80;;;;;;5053159;28;20819;-67